sensor_id;sensor_type;location;lat;lon;timestamp;temperature;humidity
19031;DHT22;9648;51.130;13.978;2022-08-19T00:00:28;21.20;99.90
19031;DHT22;9648;51.130;13.978;2022-08-19T00:02:54;21.20;99.90
19031;DHT22;9648;51.130;13.978;2022-08-19T00:05:22;21.10;99.90
19031;DHT22;9648;51.130;13.978;2022-08-19T00:07:49;21.10;99.90
19031;DHT22;9648;51.130;13.978;2022-08-19T00:10:17;21.10;99.90
19031;DHT22;9648;51.130;13.978;2022-08-19T00:12:45;21.10;99.90
19031;DHT22;9648;51.130;13.978;2022-08-19T00:15:14;21.10;99.90
19031;DHT22;9648;51.130;13.978;2022-08-19T00:17:42;21.00;99.90
19031;DHT22;9648;51.130;13.978;2022-08-19T00:20:11;21.00;99.90
19031;DHT22;9648;51.130;13.978;2022-08-19T00:22:38;21.00;99.90
19031;DHT22;9648;51.130;13.978;2022-08-19T00:25:07;21.00;99.90
19031;DHT22;9648;51.130;13.978;2022-08-19T00:27:34;21.00;99.90
19031;DHT22;9648;51.130;13.978;2022-08-19T00:30:04;21.00;99.90
19031;DHT22;9648;51.130;13.978;2022-08-19T00:32:31;21.00;99.90
19031;DHT22;9648;51.130;13.978;2022-08-19T00:34:58;20.90;99.90
19031;DHT22;9648;51.130;13.978;2022-08-19T00:37:25;20.90;99.90
19031;DHT22;9648;51.130;13.978;2022-08-19T00:39:52;20.90;99.90
19031;DHT22;9648;51.130;13.978;2022-08-19T00:42:20;20.90;99.90
19031;DHT22;9648;51.130;13.978;2022-08-19T00:44:47;20.90;99.90
19031;DHT22;9648;51.130;13.978;2022-08-19T00:47:15;20.90;99.90
19031;DHT22;9648;51.130;13.978;2022-08-19T00:49:45;20.80;99.90
19031;DHT22;9648;51.130;13.978;2022-08-19T00:52:24;20.80;99.90
19031;DHT22;9648;51.130;13.978;2022-08-19T00:54:52;20.80;99.90
19031;DHT22;9648;51.130;13.978;2022-08-19T00:57:23;20.80;99.90
19031;DHT22;9648;51.130;13.978;2022-08-19T00:59:55;20.80;99.90
19031;DHT22;9648;51.130;13.978;2022-08-19T01:02:24;20.80;99.90
19031;DHT22;9648;51.130;13.978;2022-08-19T01:04:51;20.80;99.90
19031;DHT22;9648;51.130;13.978;2022-08-19T01:07:18;20.70;99.90
19031;DHT22;9648;51.130;13.978;2022-08-19T01:09:45;20.70;99.90
19031;DHT22;9648;51.130;13.978;2022-08-19T01:12:12;20.60;99.90
19031;DHT22;9648;51.130;13.978;2022-08-19T01:14:40;20.60;99.90
19031;DHT22;9648;51.130;13.978;2022-08-19T01:17:07;20.60;99.90
19031;DHT22;9648;51.130;13.978;2022-08-19T01:19:37;20.50;99.90
19031;DHT22;9648;51.130;13.978;2022-08-19T01:22:08;20.50;99.90
19031;DHT22;9648;51.130;13.978;2022-08-19T01:24:39;20.60;99.90
19031;DHT22;9648;51.130;13.978;2022-08-19T01:27:07;20.60;99.90
19031;DHT22;9648;51.130;13.978;2022-08-19T01:29:37;20.60;99.90
19031;DHT22;9648;51.130;13.978;2022-08-19T01:32:05;20.60;99.90
19031;DHT22;9648;51.130;13.978;2022-08-19T01:34:32;20.60;99.90
19031;DHT22;9648;51.130;13.978;2022-08-19T01:36:59;20.60;99.90
19031;DHT22;9648;51.130;13.978;2022-08-19T01:39:28;20.60;99.90
19031;DHT22;9648;51.130;13.978;2022-08-19T01:41:56;20.60;99.90
19031;DHT22;9648;51.130;13.978;2022-08-19T01:44:22;20.60;99.90
19031;DHT22;9648;51.130;13.978;2022-08-19T01:46:51;20.60;99.90
19031;DHT22;9648;51.130;13.978;2022-08-19T01:49:20;20.60;99.90
19031;DHT22;9648;51.130;13.978;2022-08-19T01:51:48;20.60;99.90
19031;DHT22;9648;51.130;13.978;2022-08-19T01:54:17;20.50;99.90
19031;DHT22;9648;51.130;13.978;2022-08-19T01:56:44;20.60;99.90
19031;DHT22;9648;51.130;13.978;2022-08-19T01:59:16;20.60;99.90
19031;DHT22;9648;51.130;13.978;2022-08-19T02:01:43;20.60;99.90
19031;DHT22;9648;51.130;13.978;2022-08-19T02:04:10;20.60;99.90
19031;DHT22;9648;51.130;13.978;2022-08-19T02:06:37;20.50;99.90
19031;DHT22;9648;51.130;13.978;2022-08-19T02:09:05;20.60;99.90
19031;DHT22;9648;51.130;13.978;2022-08-19T02:11:35;20.50;99.90
19031;DHT22;9648;51.130;13.978;2022-08-19T02:14:06;20.60;99.90
19031;DHT22;9648;51.130;13.978;2022-08-19T02:16:35;20.50;99.90
19031;DHT22;9648;51.130;13.978;2022-08-19T02:19:03;20.50;99.90
19031;DHT22;9648;51.130;13.978;2022-08-19T02:21:30;20.50;99.90
19031;DHT22;9648;51.130;13.978;2022-08-19T02:23:57;20.50;99.90
19031;DHT22;9648;51.130;13.978;2022-08-19T02:26:24;20.50;99.90
19031;DHT22;9648;51.130;13.978;2022-08-19T02:28:52;20.50;99.90
19031;DHT22;9648;51.130;13.978;2022-08-19T02:31:22;20.50;99.90
19031;DHT22;9648;51.130;13.978;2022-08-19T02:33:50;20.50;99.90
19031;DHT22;9648;51.130;13.978;2022-08-19T02:36:18;20.50;99.90
19031;DHT22;9648;51.130;13.978;2022-08-19T02:38:46;20.50;99.90
19031;DHT22;9648;51.130;13.978;2022-08-19T02:41:15;20.50;99.90
19031;DHT22;9648;51.130;13.978;2022-08-19T02:43:42;20.40;99.90
19031;DHT22;9648;51.130;13.978;2022-08-19T02:46:14;20.30;99.90
19031;DHT22;9648;51.130;13.978;2022-08-19T02:48:41;20.30;99.90
19031;DHT22;9648;51.130;13.978;2022-08-19T02:51:16;20.20;99.90
19031;DHT22;9648;51.130;13.978;2022-08-19T02:53:43;20.20;99.90
19031;DHT22;9648;51.130;13.978;2022-08-19T02:56:10;20.10;99.90
19031;DHT22;9648;51.130;13.978;2022-08-19T02:58:36;20.10;99.90
19031;DHT22;9648;51.130;13.978;2022-08-19T03:01:03;20.10;99.90
19031;DHT22;9648;51.130;13.978;2022-08-19T03:03:30;20.00;99.90
19031;DHT22;9648;51.130;13.978;2022-08-19T03:06:06;20.00;99.90
19031;DHT22;9648;51.130;13.978;2022-08-19T03:08:35;20.00;99.90
19031;DHT22;9648;51.130;13.978;2022-08-19T03:11:03;20.10;99.90
19031;DHT22;9648;51.130;13.978;2022-08-19T03:13:30;20.10;99.90
19031;DHT22;9648;51.130;13.978;2022-08-19T03:15:57;20.10;99.90
19031;DHT22;9648;51.130;13.978;2022-08-19T03:18:24;20.10;99.90
19031;DHT22;9648;51.130;13.978;2022-08-19T03:20:52;20.10;99.90
19031;DHT22;9648;51.130;13.978;2022-08-19T03:23:19;20.10;99.90
19031;DHT22;9648;51.130;13.978;2022-08-19T03:25:49;20.10;99.90
19031;DHT22;9648;51.130;13.978;2022-08-19T03:28:17;20.10;99.90
19031;DHT22;9648;51.130;13.978;2022-08-19T03:30:55;20.20;99.90
19031;DHT22;9648;51.130;13.978;2022-08-19T03:33:24;20.20;99.90
19031;DHT22;9648;51.130;13.978;2022-08-19T03:36:05;20.20;99.90
19031;DHT22;9648;51.130;13.978;2022-08-19T03:38:33;20.30;99.90
19031;DHT22;9648;51.130;13.978;2022-08-19T03:41:05;20.30;99.90
19031;DHT22;9648;51.130;13.978;2022-08-19T03:43:34;20.30;99.90
19031;DHT22;9648;51.130;13.978;2022-08-19T03:46:03;20.30;99.90
19031;DHT22;9648;51.130;13.978;2022-08-19T03:48:31;20.30;99.90
19031;DHT22;9648;51.130;13.978;2022-08-19T03:50:58;20.30;99.90
19031;DHT22;9648;51.130;13.978;2022-08-19T03:53:26;20.40;99.90
19031;DHT22;9648;51.130;13.978;2022-08-19T03:55:53;20.40;99.90
19031;DHT22;9648;51.130;13.978;2022-08-19T03:58:22;20.40;99.90
19031;DHT22;9648;51.130;13.978;2022-08-19T04:00:49;20.40;99.90
19031;DHT22;9648;51.130;13.978;2022-08-19T04:03:15;20.50;99.90
19031;DHT22;9648;51.130;13.978;2022-08-19T04:05:44;20.50;99.90
19031;DHT22;9648;51.130;13.978;2022-08-19T04:08:11;20.50;99.90
19031;DHT22;9648;51.130;13.978;2022-08-19T04:10:38;20.50;99.90
19031;DHT22;9648;51.130;13.978;2022-08-19T04:13:06;20.50;99.90
19031;DHT22;9648;51.130;13.978;2022-08-19T04:15:39;20.50;99.90
19031;DHT22;9648;51.130;13.978;2022-08-19T04:18:07;20.50;99.90
19031;DHT22;9648;51.130;13.978;2022-08-19T04:20:39;20.50;99.90
19031;DHT22;9648;51.130;13.978;2022-08-19T04:23:06;20.50;99.90
19031;DHT22;9648;51.130;13.978;2022-08-19T04:25:36;20.50;99.90
19031;DHT22;9648;51.130;13.978;2022-08-19T04:28:02;20.50;99.90
19031;DHT22;9648;51.130;13.978;2022-08-19T04:30:29;20.50;99.90
19031;DHT22;9648;51.130;13.978;2022-08-19T04:32:57;20.40;99.90
19031;DHT22;9648;51.130;13.978;2022-08-19T04:35:24;20.40;99.90
19031;DHT22;9648;51.130;13.978;2022-08-19T04:37:51;20.40;99.90
19031;DHT22;9648;51.130;13.978;2022-08-19T04:40:18;20.40;99.90
19031;DHT22;9648;51.130;13.978;2022-08-19T04:43:02;20.40;99.90
19031;DHT22;9648;51.130;13.978;2022-08-19T04:45:29;20.50;99.90
19031;DHT22;9648;51.130;13.978;2022-08-19T04:47:57;20.50;99.90
19031;DHT22;9648;51.130;13.978;2022-08-19T04:50:24;20.40;99.90
19031;DHT22;9648;51.130;13.978;2022-08-19T04:52:51;20.40;99.90
19031;DHT22;9648;51.130;13.978;2022-08-19T04:55:18;20.40;99.90
19031;DHT22;9648;51.130;13.978;2022-08-19T04:57:45;20.40;99.90
19031;DHT22;9648;51.130;13.978;2022-08-19T05:00:12;20.40;99.90
19031;DHT22;9648;51.130;13.978;2022-08-19T05:02:39;20.40;99.90
19031;DHT22;9648;51.130;13.978;2022-08-19T05:05:08;20.40;99.90
19031;DHT22;9648;51.130;13.978;2022-08-19T05:07:35;20.40;99.90
19031;DHT22;9648;51.130;13.978;2022-08-19T05:10:02;20.40;99.90
19031;DHT22;9648;51.130;13.978;2022-08-19T05:12:29;20.40;99.90
19031;DHT22;9648;51.130;13.978;2022-08-19T05:14:56;20.40;99.90
19031;DHT22;9648;51.130;13.978;2022-08-19T05:17:23;20.40;99.90
19031;DHT22;9648;51.130;13.978;2022-08-19T05:19:50;20.40;99.90
19031;DHT22;9648;51.130;13.978;2022-08-19T05:22:36;20.40;99.90
19031;DHT22;9648;51.130;13.978;2022-08-19T05:25:07;20.40;99.90
19031;DHT22;9648;51.130;13.978;2022-08-19T05:27:34;20.40;99.90
19031;DHT22;9648;51.130;13.978;2022-08-19T05:30:01;20.40;99.90
19031;DHT22;9648;51.130;13.978;2022-08-19T05:32:28;20.40;99.90
19031;DHT22;9648;51.130;13.978;2022-08-19T05:34:55;20.40;99.90
19031;DHT22;9648;51.130;13.978;2022-08-19T05:37:22;20.40;99.90
19031;DHT22;9648;51.130;13.978;2022-08-19T05:39:50;20.40;99.90
19031;DHT22;9648;51.130;13.978;2022-08-19T05:42:16;20.40;99.90
19031;DHT22;9648;51.130;13.978;2022-08-19T05:44:45;20.50;99.90
19031;DHT22;9648;51.130;13.978;2022-08-19T05:47:15;20.50;99.90
19031;DHT22;9648;51.130;13.978;2022-08-19T05:49:42;20.50;99.90
19031;DHT22;9648;51.130;13.978;2022-08-19T05:52:11;20.40;99.90
19031;DHT22;9648;51.130;13.978;2022-08-19T05:54:41;20.40;99.90
19031;DHT22;9648;51.130;13.978;2022-08-19T05:57:09;20.40;99.90
19031;DHT22;9648;51.130;13.978;2022-08-19T05:59:36;20.40;99.90
19031;DHT22;9648;51.130;13.978;2022-08-19T06:02:04;20.40;99.90
19031;DHT22;9648;51.130;13.978;2022-08-19T06:04:31;20.40;99.90
19031;DHT22;9648;51.130;13.978;2022-08-19T06:06:58;20.30;99.90
19031;DHT22;9648;51.130;13.978;2022-08-19T06:09:26;20.30;99.90
19031;DHT22;9648;51.130;13.978;2022-08-19T06:11:55;20.30;99.90
19031;DHT22;9648;51.130;13.978;2022-08-19T06:14:28;20.30;99.90
19031;DHT22;9648;51.130;13.978;2022-08-19T06:16:56;20.20;99.90
19031;DHT22;9648;51.130;13.978;2022-08-19T06:19:25;20.20;99.90
19031;DHT22;9648;51.130;13.978;2022-08-19T06:21:55;20.20;99.90
19031;DHT22;9648;51.130;13.978;2022-08-19T06:24:24;20.20;99.90
19031;DHT22;9648;51.130;13.978;2022-08-19T06:26:53;20.20;99.90
19031;DHT22;9648;51.130;13.978;2022-08-19T06:29:22;20.10;99.90
19031;DHT22;9648;51.130;13.978;2022-08-19T06:31:53;20.10;99.90
19031;DHT22;9648;51.130;13.978;2022-08-19T06:34:21;20.10;99.90
19031;DHT22;9648;51.130;13.978;2022-08-19T06:36:51;20.00;99.90
19031;DHT22;9648;51.130;13.978;2022-08-19T06:39:20;20.00;99.90
19031;DHT22;9648;51.130;13.978;2022-08-19T06:41:50;20.00;99.90
19031;DHT22;9648;51.130;13.978;2022-08-19T06:44:18;20.00;99.90
19031;DHT22;9648;51.130;13.978;2022-08-19T06:46:45;19.90;99.90
19031;DHT22;9648;51.130;13.978;2022-08-19T06:49:16;19.90;99.90
19031;DHT22;9648;51.130;13.978;2022-08-19T06:51:45;19.90;99.90
19031;DHT22;9648;51.130;13.978;2022-08-19T06:54:13;19.90;99.90
19031;DHT22;9648;51.130;13.978;2022-08-19T06:56:41;19.90;99.90
19031;DHT22;9648;51.130;13.978;2022-08-19T06:59:12;19.90;99.90
19031;DHT22;9648;51.130;13.978;2022-08-19T07:01:41;19.90;99.90
19031;DHT22;9648;51.130;13.978;2022-08-19T07:04:08;19.90;99.90
19031;DHT22;9648;51.130;13.978;2022-08-19T07:06:36;19.90;99.90
19031;DHT22;9648;51.130;13.978;2022-08-19T07:09:04;19.90;99.90
19031;DHT22;9648;51.130;13.978;2022-08-19T07:11:31;19.90;99.90
19031;DHT22;9648;51.130;13.978;2022-08-19T07:13:59;19.90;99.90
19031;DHT22;9648;51.130;13.978;2022-08-19T07:16:26;19.90;99.90
19031;DHT22;9648;51.130;13.978;2022-08-19T07:18:53;19.80;99.90
19031;DHT22;9648;51.130;13.978;2022-08-19T07:21:23;19.90;99.90
19031;DHT22;9648;51.130;13.978;2022-08-19T07:23:53;19.90;99.90
19031;DHT22;9648;51.130;13.978;2022-08-19T07:26:23;19.90;99.90
19031;DHT22;9648;51.130;13.978;2022-08-19T07:28:50;19.80;99.90
19031;DHT22;9648;51.130;13.978;2022-08-19T07:31:18;19.90;99.90
19031;DHT22;9648;51.130;13.978;2022-08-19T07:33:46;19.90;99.90
19031;DHT22;9648;51.130;13.978;2022-08-19T07:36:17;19.90;99.90
19031;DHT22;9648;51.130;13.978;2022-08-19T07:38:47;19.90;99.90
19031;DHT22;9648;51.130;13.978;2022-08-19T07:41:19;19.90;99.90
19031;DHT22;9648;51.130;13.978;2022-08-19T07:43:46;19.90;99.90
19031;DHT22;9648;51.130;13.978;2022-08-19T07:46:13;19.90;99.90
19031;DHT22;9648;51.130;13.978;2022-08-19T07:48:42;19.90;99.90
19031;DHT22;9648;51.130;13.978;2022-08-19T07:51:10;19.90;99.90
19031;DHT22;9648;51.130;13.978;2022-08-19T07:53:37;19.90;99.90
19031;DHT22;9648;51.130;13.978;2022-08-19T07:56:05;20.00;99.90
19031;DHT22;9648;51.130;13.978;2022-08-19T07:58:36;19.90;99.90
19031;DHT22;9648;51.130;13.978;2022-08-19T08:01:04;20.00;99.90
19031;DHT22;9648;51.130;13.978;2022-08-19T08:03:31;19.90;99.90
19031;DHT22;9648;51.130;13.978;2022-08-19T08:06:15;20.00;99.90
19031;DHT22;9648;51.130;13.978;2022-08-19T08:09:00;19.90;99.90
19031;DHT22;9648;51.130;13.978;2022-08-19T08:11:49;19.90;99.90
19031;DHT22;9648;51.130;13.978;2022-08-19T08:14:19;20.00;99.90
19031;DHT22;9648;51.130;13.978;2022-08-19T08:16:47;20.00;99.90
19031;DHT22;9648;51.130;13.978;2022-08-19T08:19:16;20.10;99.90
19031;DHT22;9648;51.130;13.978;2022-08-19T08:21:43;20.10;99.90
19031;DHT22;9648;51.130;13.978;2022-08-19T08:24:11;20.20;99.90
19031;DHT22;9648;51.130;13.978;2022-08-19T08:26:38;20.20;99.90
19031;DHT22;9648;51.130;13.978;2022-08-19T08:29:05;20.20;99.90
19031;DHT22;9648;51.130;13.978;2022-08-19T08:31:34;20.20;99.90
19031;DHT22;9648;51.130;13.978;2022-08-19T08:34:01;20.20;99.90
19031;DHT22;9648;51.130;13.978;2022-08-19T08:36:28;20.10;99.90
19031;DHT22;9648;51.130;13.978;2022-08-19T08:38:54;20.20;99.90
19031;DHT22;9648;51.130;13.978;2022-08-19T08:41:28;20.20;99.90
19031;DHT22;9648;51.130;13.978;2022-08-19T08:43:57;20.20;99.90
19031;DHT22;9648;51.130;13.978;2022-08-19T08:46:29;20.30;99.90
19031;DHT22;9648;51.130;13.978;2022-08-19T08:49:02;20.30;99.90
19031;DHT22;9648;51.130;13.978;2022-08-19T08:51:34;20.30;99.90
19031;DHT22;9648;51.130;13.978;2022-08-19T08:54:05;20.30;99.90
19031;DHT22;9648;51.130;13.978;2022-08-19T08:56:32;20.30;99.90
19031;DHT22;9648;51.130;13.978;2022-08-19T08:59:03;20.20;99.90
19031;DHT22;9648;51.130;13.978;2022-08-19T09:01:32;20.20;99.90
19031;DHT22;9648;51.130;13.978;2022-08-19T09:04:03;20.30;99.90
19031;DHT22;9648;51.130;13.978;2022-08-19T09:06:36;20.20;99.90
19031;DHT22;9648;51.130;13.978;2022-08-19T09:09:12;20.30;99.90
19031;DHT22;9648;51.130;13.978;2022-08-19T09:11:50;20.40;99.90
19031;DHT22;9648;51.130;13.978;2022-08-19T09:14:34;20.50;99.90
19031;DHT22;9648;51.130;13.978;2022-08-19T09:17:03;20.60;99.90
19031;DHT22;9648;51.130;13.978;2022-08-19T09:19:35;20.70;99.90
19031;DHT22;9648;51.130;13.978;2022-08-19T09:22:02;20.70;99.90
19031;DHT22;9648;51.130;13.978;2022-08-19T09:24:30;20.70;99.90
19031;DHT22;9648;51.130;13.978;2022-08-19T09:26:57;20.80;99.90
19031;DHT22;9648;51.130;13.978;2022-08-19T09:29:24;20.90;99.90
19031;DHT22;9648;51.130;13.978;2022-08-19T09:31:50;20.90;99.90
19031;DHT22;9648;51.130;13.978;2022-08-19T09:34:17;21.10;99.90
19031;DHT22;9648;51.130;13.978;2022-08-19T09:36:46;21.40;99.90
19031;DHT22;9648;51.130;13.978;2022-08-19T09:39:14;21.60;99.90
19031;DHT22;9648;51.130;13.978;2022-08-19T09:41:41;21.70;99.90
19031;DHT22;9648;51.130;13.978;2022-08-19T09:44:08;21.90;99.90
19031;DHT22;9648;51.130;13.978;2022-08-19T09:46:38;22.10;99.90
19031;DHT22;9648;51.130;13.978;2022-08-19T09:49:04;22.10;99.90
19031;DHT22;9648;51.130;13.978;2022-08-19T09:51:32;22.10;99.90
19031;DHT22;9648;51.130;13.978;2022-08-19T09:54:01;22.00;99.90
19031;DHT22;9648;51.130;13.978;2022-08-19T09:56:29;21.90;99.90
19031;DHT22;9648;51.130;13.978;2022-08-19T09:58:57;21.90;99.90
19031;DHT22;9648;51.130;13.978;2022-08-19T10:01:28;21.90;99.90
19031;DHT22;9648;51.130;13.978;2022-08-19T10:03:56;21.90;99.90
19031;DHT22;9648;51.130;13.978;2022-08-19T10:06:25;21.90;99.90
19031;DHT22;9648;51.130;13.978;2022-08-19T10:08:54;22.00;99.90
19031;DHT22;9648;51.130;13.978;2022-08-19T10:11:23;22.20;99.90
19031;DHT22;9648;51.130;13.978;2022-08-19T10:13:49;22.40;99.90
19031;DHT22;9648;51.130;13.978;2022-08-19T10:16:20;22.60;99.90
19031;DHT22;9648;51.130;13.978;2022-08-19T10:18:48;22.80;99.90
19031;DHT22;9648;51.130;13.978;2022-08-19T10:21:17;22.90;99.90
19031;DHT22;9648;51.130;13.978;2022-08-19T10:23:47;22.90;99.90
19031;DHT22;9648;51.130;13.978;2022-08-19T10:26:16;23.00;99.90
19031;DHT22;9648;51.130;13.978;2022-08-19T10:28:45;23.00;99.90
19031;DHT22;9648;51.130;13.978;2022-08-19T10:31:15;23.20;99.90
19031;DHT22;9648;51.130;13.978;2022-08-19T10:33:42;23.30;99.90
19031;DHT22;9648;51.130;13.978;2022-08-19T10:36:12;23.30;99.90
19031;DHT22;9648;51.130;13.978;2022-08-19T10:38:41;23.30;99.90
19031;DHT22;9648;51.130;13.978;2022-08-19T10:41:10;23.10;99.90
19031;DHT22;9648;51.130;13.978;2022-08-19T10:43:37;23.00;99.90
19031;DHT22;9648;51.130;13.978;2022-08-19T10:46:07;22.90;99.90
19031;DHT22;9648;51.130;13.978;2022-08-19T10:48:34;22.80;99.90
19031;DHT22;9648;51.130;13.978;2022-08-19T10:51:02;22.70;99.90
19031;DHT22;9648;51.130;13.978;2022-08-19T10:53:52;22.60;99.90
19031;DHT22;9648;51.130;13.978;2022-08-19T10:56:19;22.50;99.90
19031;DHT22;9648;51.130;13.978;2022-08-19T10:59:04;22.40;99.90
19031;DHT22;9648;51.130;13.978;2022-08-19T11:01:33;22.40;99.90
19031;DHT22;9648;51.130;13.978;2022-08-19T11:04:01;22.30;99.90
19031;DHT22;9648;51.130;13.978;2022-08-19T11:06:28;22.20;99.90
19031;DHT22;9648;51.130;13.978;2022-08-19T11:08:58;22.10;99.90
19031;DHT22;9648;51.130;13.978;2022-08-19T11:11:25;22.10;99.90
19031;DHT22;9648;51.130;13.978;2022-08-19T11:13:54;22.00;99.90
19031;DHT22;9648;51.130;13.978;2022-08-19T11:16:22;22.10;99.90
19031;DHT22;9648;51.130;13.978;2022-08-19T11:18:53;22.10;99.90
19031;DHT22;9648;51.130;13.978;2022-08-19T11:21:22;22.20;99.90
19031;DHT22;9648;51.130;13.978;2022-08-19T11:23:51;22.30;99.90
19031;DHT22;9648;51.130;13.978;2022-08-19T11:26:20;22.50;99.90
19031;DHT22;9648;51.130;13.978;2022-08-19T11:28:48;22.70;99.90
19031;DHT22;9648;51.130;13.978;2022-08-19T11:31:19;23.00;99.90
19031;DHT22;9648;51.130;13.978;2022-08-19T11:33:46;23.20;99.90
19031;DHT22;9648;51.130;13.978;2022-08-19T11:36:17;23.20;99.90
19031;DHT22;9648;51.130;13.978;2022-08-19T11:38:46;23.00;99.90
19031;DHT22;9648;51.130;13.978;2022-08-19T11:41:14;22.80;99.90
19031;DHT22;9648;51.130;13.978;2022-08-19T11:43:42;22.70;99.90
19031;DHT22;9648;51.130;13.978;2022-08-19T11:46:11;22.60;99.90
19031;DHT22;9648;51.130;13.978;2022-08-19T11:48:38;22.40;99.90
19031;DHT22;9648;51.130;13.978;2022-08-19T11:51:07;22.30;99.90
19031;DHT22;9648;51.130;13.978;2022-08-19T11:53:36;22.30;99.90
19031;DHT22;9648;51.130;13.978;2022-08-19T11:56:04;22.20;99.90
19031;DHT22;9648;51.130;13.978;2022-08-19T11:58:31;22.10;99.90
19031;DHT22;9648;51.130;13.978;2022-08-19T12:00:58;22.00;99.90
19031;DHT22;9648;51.130;13.978;2022-08-19T12:03:24;22.00;99.90
19031;DHT22;9648;51.130;13.978;2022-08-19T12:05:51;22.00;99.90
19031;DHT22;9648;51.130;13.978;2022-08-19T12:08:19;22.00;99.90
19031;DHT22;9648;51.130;13.978;2022-08-19T12:10:47;22.10;99.90
19031;DHT22;9648;51.130;13.978;2022-08-19T12:13:14;22.20;99.90
19031;DHT22;9648;51.130;13.978;2022-08-19T12:15:45;22.40;99.90
19031;DHT22;9648;51.130;13.978;2022-08-19T12:18:12;22.70;99.90
19031;DHT22;9648;51.130;13.978;2022-08-19T12:20:41;22.80;99.90
19031;DHT22;9648;51.130;13.978;2022-08-19T12:23:09;22.90;99.90
19031;DHT22;9648;51.130;13.978;2022-08-19T12:25:36;22.80;99.90
19031;DHT22;9648;51.130;13.978;2022-08-19T12:28:05;22.70;99.90
19031;DHT22;9648;51.130;13.978;2022-08-19T12:30:31;22.60;99.90
19031;DHT22;9648;51.130;13.978;2022-08-19T12:32:58;22.40;99.90
19031;DHT22;9648;51.130;13.978;2022-08-19T12:35:25;22.30;99.90
19031;DHT22;9648;51.130;13.978;2022-08-19T12:37:51;22.20;99.90
19031;DHT22;9648;51.130;13.978;2022-08-19T12:40:18;22.10;99.90
19031;DHT22;9648;51.130;13.978;2022-08-19T12:42:45;22.00;99.90
19031;DHT22;9648;51.130;13.978;2022-08-19T12:45:13;22.00;99.90
19031;DHT22;9648;51.130;13.978;2022-08-19T12:47:40;22.10;99.90
19031;DHT22;9648;51.130;13.978;2022-08-19T12:50:07;22.20;99.90
19031;DHT22;9648;51.130;13.978;2022-08-19T12:52:35;22.30;99.90
19031;DHT22;9648;51.130;13.978;2022-08-19T12:55:05;22.30;99.90
19031;DHT22;9648;51.130;13.978;2022-08-19T12:57:33;22.50;99.90
19031;DHT22;9648;51.130;13.978;2022-08-19T13:00:04;22.60;99.90
19031;DHT22;9648;51.130;13.978;2022-08-19T13:02:34;22.80;99.90
19031;DHT22;9648;51.130;13.978;2022-08-19T13:05:01;23.10;99.90
19031;DHT22;9648;51.130;13.978;2022-08-19T13:07:28;23.30;99.90
19031;DHT22;9648;51.130;13.978;2022-08-19T13:09:56;23.50;99.90
19031;DHT22;9648;51.130;13.978;2022-08-19T13:12:22;23.70;99.90
19031;DHT22;9648;51.130;13.978;2022-08-19T13:14:52;23.70;99.90
19031;DHT22;9648;51.130;13.978;2022-08-19T13:17:19;23.60;99.90
19031;DHT22;9648;51.130;13.978;2022-08-19T13:19:47;23.40;99.90
19031;DHT22;9648;51.130;13.978;2022-08-19T13:22:14;23.20;99.90
19031;DHT22;9648;51.130;13.978;2022-08-19T13:24:41;23.10;99.90
19031;DHT22;9648;51.130;13.978;2022-08-19T13:27:08;22.80;99.90
19031;DHT22;9648;51.130;13.978;2022-08-19T13:29:35;22.60;99.90
19031;DHT22;9648;51.130;13.978;2022-08-19T13:32:19;22.40;99.90
19031;DHT22;9648;51.130;13.978;2022-08-19T13:35:05;22.30;99.90
19031;DHT22;9648;51.130;13.978;2022-08-19T13:37:32;22.30;99.90
19031;DHT22;9648;51.130;13.978;2022-08-19T13:40:09;22.40;99.90
19031;DHT22;9648;51.130;13.978;2022-08-19T13:42:38;22.60;99.90
19031;DHT22;9648;51.130;13.978;2022-08-19T13:45:06;22.90;99.90
19031;DHT22;9648;51.130;13.978;2022-08-19T13:47:33;23.10;99.90
19031;DHT22;9648;51.130;13.978;2022-08-19T13:50:02;23.20;99.90
19031;DHT22;9648;51.130;13.978;2022-08-19T13:52:30;23.10;99.90
19031;DHT22;9648;51.130;13.978;2022-08-19T13:54:56;22.90;99.90
19031;DHT22;9648;51.130;13.978;2022-08-19T13:57:24;22.70;99.90
19031;DHT22;9648;51.130;13.978;2022-08-19T13:59:50;22.60;99.90
19031;DHT22;9648;51.130;13.978;2022-08-19T14:02:17;22.50;99.90
19031;DHT22;9648;51.130;13.978;2022-08-19T14:04:44;22.40;99.90
19031;DHT22;9648;51.130;13.978;2022-08-19T14:07:11;22.30;99.90
19031;DHT22;9648;51.130;13.978;2022-08-19T14:09:39;22.30;99.90
19031;DHT22;9648;51.130;13.978;2022-08-19T14:12:06;22.30;99.90
19031;DHT22;9648;51.130;13.978;2022-08-19T14:14:36;22.20;99.90
19031;DHT22;9648;51.130;13.978;2022-08-19T14:17:05;22.20;99.90
19031;DHT22;9648;51.130;13.978;2022-08-19T14:19:32;22.10;99.90
19031;DHT22;9648;51.130;13.978;2022-08-19T14:21:59;22.10;99.90
19031;DHT22;9648;51.130;13.978;2022-08-19T14:24:26;22.00;99.90
19031;DHT22;9648;51.130;13.978;2022-08-19T14:26:55;22.00;99.90
19031;DHT22;9648;51.130;13.978;2022-08-19T14:29:23;21.90;99.90
19031;DHT22;9648;51.130;13.978;2022-08-19T14:31:50;21.90;99.90
19031;DHT22;9648;51.130;13.978;2022-08-19T14:34:17;22.00;99.90
19031;DHT22;9648;51.130;13.978;2022-08-19T14:36:43;22.00;99.90
19031;DHT22;9648;51.130;13.978;2022-08-19T14:39:10;22.00;99.90
19031;DHT22;9648;51.130;13.978;2022-08-19T14:41:39;22.00;99.90
19031;DHT22;9648;51.130;13.978;2022-08-19T14:44:08;21.90;99.90
19031;DHT22;9648;51.130;13.978;2022-08-19T14:46:38;21.80;99.90
19031;DHT22;9648;51.130;13.978;2022-08-19T14:49:05;21.70;99.90
19031;DHT22;9648;51.130;13.978;2022-08-19T14:51:33;21.70;99.90
19031;DHT22;9648;51.130;13.978;2022-08-19T14:53:59;21.60;99.90
19031;DHT22;9648;51.130;13.978;2022-08-19T14:56:28;21.60;99.90
19031;DHT22;9648;51.130;13.978;2022-08-19T14:58:56;21.50;99.90
19031;DHT22;9648;51.130;13.978;2022-08-19T15:01:27;21.40;99.90
19031;DHT22;9648;51.130;13.978;2022-08-19T15:03:54;21.40;99.90
19031;DHT22;9648;51.130;13.978;2022-08-19T15:06:22;21.50;99.90
19031;DHT22;9648;51.130;13.978;2022-08-19T15:08:49;21.50;99.90
19031;DHT22;9648;51.130;13.978;2022-08-19T15:11:18;21.50;99.90
19031;DHT22;9648;51.130;13.978;2022-08-19T15:13:46;21.40;99.90
19031;DHT22;9648;51.130;13.978;2022-08-19T15:16:14;21.40;99.90
19031;DHT22;9648;51.130;13.978;2022-08-19T15:18:42;21.40;99.90
19031;DHT22;9648;51.130;13.978;2022-08-19T15:21:11;21.30;99.90
19031;DHT22;9648;51.130;13.978;2022-08-19T15:23:38;21.30;99.90
19031;DHT22;9648;51.130;13.978;2022-08-19T15:26:05;21.30;99.90
19031;DHT22;9648;51.130;13.978;2022-08-19T15:28:33;21.30;99.90
19031;DHT22;9648;51.130;13.978;2022-08-19T15:31:00;21.30;99.90
19031;DHT22;9648;51.130;13.978;2022-08-19T15:33:27;21.40;99.90
19031;DHT22;9648;51.130;13.978;2022-08-19T15:35:56;21.40;99.90
19031;DHT22;9648;51.130;13.978;2022-08-19T15:38:22;21.40;99.90